Time;durP1;ratioP1;P1;durP2;ratioP2;P2;SDS_P1;SDS_P2;PMS_P1;PMS_P2;Temp;Humidity;BMP_temperature;BMP_pressure;BME280_temperature;BME280_humidity;BME280_pressure;Samples;Min_cycle;Max_cycle;Signal;HPM_P1;HPM_P2
2021/11/23 00:00:13;;;;;;;0.98;0.98;;;2.00;99.90;;;;;;5011339;28;20226;-71
2021/11/23 00:02:40;;;;;;;0.60;0.60;;;2.10;99.90;;;;;;5010675;28;20273;-72
2021/11/23 00:05:09;;;;;;;0.60;0.60;;;2.20;99.90;;;;;;5011437;28;20219;-73
2021/11/23 00:07:35;;;;;;;0.70;0.70;;;2.20;99.90;;;;;;5011981;28;20198;-72
2021/11/23 00:10:01;;;;;;;0.63;0.63;;;2.30;99.90;;;;;;5009661;28;20214;-73
2021/11/23 00:12:27;;;;;;;0.60;0.60;;;2.30;99.90;;;;;;5012290;28;20281;-73
2021/11/23 00:14:53;;;;;;;0.60;0.60;;;2.40;99.90;;;;;;5011769;28;20237;-73
2021/11/23 00:17:18;;;;;;;0.70;0.70;;;2.40;99.90;;;;;;5011164;28;20203;-73
2021/11/23 00:19:44;;;;;;;0.70;0.70;;;2.30;99.90;;;;;;5009570;28;20206;-72
2021/11/23 00:22:11;;;;;;;0.70;0.70;;;2.00;99.90;;;;;;5010747;28;20203;-73
2021/11/23 00:24:37;;;;;;;0.70;0.70;;;1.80;99.90;;;;;;5009458;28;20230;-73
2021/11/23 00:27:04;;;;;;;0.60;0.60;;;1.80;99.90;;;;;;5009506;28;20218;-73
2021/11/23 00:29:30;;;;;;;0.63;0.63;;;1.70;99.90;;;;;;5011998;28;20203;-72
2021/11/23 00:31:56;;;;;;;0.60;0.60;;;1.70;99.90;;;;;;5011994;28;20265;-73
2021/11/23 00:34:22;;;;;;;0.70;0.70;;;1.70;99.90;;;;;;5009490;28;20207;-73
2021/11/23 00:36:48;;;;;;;0.60;0.60;;;1.80;99.90;;;;;;5010825;28;20257;-72
2021/11/23 00:39:13;;;;;;;0.80;0.80;;;1.70;99.90;;;;;;5009711;28;20210;-72
2021/11/23 00:41:39;;;;;;;0.98;0.98;;;1.60;99.90;;;;;;5011394;28;20207;-73
2021/11/23 00:44:05;;;;;;;0.60;0.60;;;1.30;99.90;;;;;;5010969;28;20781;-73
2021/11/23 00:46:30;;;;;;;0.80;0.80;;;1.00;99.90;;;;;;5010334;28;20202;-72
2021/11/23 00:48:56;;;;;;;0.60;0.60;;;0.70;99.90;;;;;;5010613;28;20554;-73
2021/11/23 00:51:22;;;;;;;0.80;0.80;;;0.30;99.90;;;;;;5007961;28;20763;-72
2021/11/23 00:53:48;;;;;;;0.75;0.75;;;0.00;99.90;;;;;;5015488;28;20264;-72
2021/11/23 00:56:13;;;;;;;0.90;0.90;;;-0.20;99.90;;;;;;5017355;28;20199;-72
2021/11/23 00:58:39;;;;;;;0.77;0.77;;;-0.40;99.90;;;;;;5017385;28;20239;-73
2021/11/23 01:01:05;;;;;;;0.65;0.65;;;-0.60;99.90;;;;;;5018181;28;20210;-74
2021/11/23 01:03:32;;;;;;;0.80;0.80;;;-0.80;99.90;;;;;;5016149;28;20203;-73
2021/11/23 01:06:00;;;;;;;0.75;0.75;;;-1.00;99.90;;;;;;5018270;28;20243;-73
2021/11/23 01:08:30;;;;;;;0.77;0.77;;;-1.10;99.90;;;;;;5017950;28;20198;-72
2021/11/23 01:10:56;;;;;;;0.73;0.73;;;-1.20;99.90;;;;;;5015402;28;20585;-73
2021/11/23 01:13:23;;;;;;;0.80;0.80;;;-1.30;99.90;;;;;;5016423;28;20312;-73
2021/11/23 01:15:49;;;;;;;0.70;0.70;;;-1.50;99.90;;;;;;5017251;28;20229;-72
2021/11/23 01:18:15;;;;;;;0.77;0.77;;;-1.60;99.90;;;;;;5016910;28;20203;-72
2021/11/23 01:20:41;;;;;;;0.80;0.80;;;-1.60;99.90;;;;;;5016768;28;20217;-72
2021/11/23 01:23:08;;;;;;;0.70;0.70;;;-1.70;99.90;;;;;;5017996;28;20206;-72
2021/11/23 01:25:33;;;;;;;0.70;0.70;;;-1.70;99.90;;;;;;5015521;28;20256;-72
2021/11/23 01:27:59;;;;;;;0.88;0.88;;;-1.80;99.90;;;;;;5018052;28;20218;-72
2021/11/23 01:30:25;;;;;;;0.70;0.70;;;-1.80;99.90;;;;;;5016651;28;20621;-72
2021/11/23 01:32:50;;;;;;;0.80;0.80;;;-1.80;99.90;;;;;;5016878;28;20567;-72
2021/11/23 01:35:16;;;;;;;0.82;0.82;;;-1.70;99.90;;;;;;5015779;28;20207;-72
2021/11/23 01:37:44;;;;;;;0.63;0.63;;;-1.60;99.90;;;;;;5016868;28;20230;-72
2021/11/23 01:40:12;;;;;;;0.70;0.70;;;-1.50;99.90;;;;;;5010655;28;20683;-72
2021/11/23 01:42:38;;;;;;;0.80;0.80;;;-1.50;99.90;;;;;;5005766;28;20697;-73
2021/11/23 01:45:05;;;;;;;0.80;0.80;;;-1.50;99.90;;;;;;5018006;28;20215;-72
2021/11/23 01:47:31;;;;;;;0.70;0.70;;;-1.60;99.90;;;;;;5015318;28;20607;-72
2021/11/23 01:49:56;;;;;;;0.80;0.80;;;-1.70;99.90;;;;;;5016486;28;20222;-72
2021/11/23 01:52:23;;;;;;;0.90;0.90;;;-1.80;99.90;;;;;;5016564;28;20596;-72
2021/11/23 01:54:49;;;;;;;0.80;0.80;;;-1.90;99.90;;;;;;5016609;28;20682;-72
2021/11/23 01:57:16;;;;;;;1.55;1.45;;;-2.10;99.90;;;;;;5016800;28;20206;-72
2021/11/23 01:59:42;;;;;;;0.80;0.80;;;-2.10;99.90;;;;;;5017502;28;20328;-72
2021/11/23 02:02:08;;;;;;;0.85;0.85;;;-2.20;99.90;;;;;;5016767;28;20214;-71
2021/11/23 02:04:34;;;;;;;1.20;1.20;;;-2.20;99.90;;;;;;5012608;28;20210;-70
2021/11/23 02:06:59;;;;;;;0.85;0.85;;;-2.30;99.90;;;;;;5014448;28;20563;-70
2021/11/23 02:09:26;;;;;;;0.73;0.73;;;-2.30;99.90;;;;;;5013558;28;20255;-70
2021/11/23 02:11:52;;;;;;;0.85;0.85;;;-2.30;99.90;;;;;;5013413;28;20302;-70
2021/11/23 02:14:19;;;;;;;0.70;0.70;;;-2.40;99.90;;;;;;5013219;28;20744;-70
2021/11/23 02:16:45;;;;;;;0.80;0.80;;;-2.50;99.90;;;;;;5013057;28;20206;-70
2021/11/23 02:19:11;;;;;;;0.73;0.73;;;-2.30;99.90;;;;;;5022419;28;20213;-70
2021/11/23 02:21:36;;;;;;;0.70;0.70;;;-2.10;99.90;;;;;;5013141;28;20299;-70
2021/11/23 02:24:03;;;;;;;0.70;0.70;;;-1.90;99.90;;;;;;5013088;28;20219;-70
2021/11/23 02:26:29;;;;;;;0.68;0.68;;;-1.60;99.90;;;;;;5013944;28;20561;-70
2021/11/23 02:28:56;;;;;;;0.85;0.85;;;-1.30;99.90;;;;;;5013157;28;20203;-70
2021/11/23 02:31:22;;;;;;;0.80;0.80;;;-0.90;99.90;;;;;;5013883;28;20211;-71
2021/11/23 02:33:48;;;;;;;0.70;0.70;;;-0.50;99.90;;;;;;5013260;28;20198;-70
2021/11/23 02:36:14;;;;;;;0.73;0.73;;;-0.40;99.90;;;;;;5012926;28;20286;-70
2021/11/23 02:38:40;;;;;;;1.80;1.40;;;-0.30;99.90;;;;;;5013901;28;20252;-71
2021/11/23 02:41:09;;;;;;;0.60;0.60;;;-0.20;99.90;;;;;;5012810;28;20209;-70
2021/11/23 02:43:37;;;;;;;0.70;0.70;;;-0.30;99.90;;;;;;5011544;28;20203;-70
2021/11/23 02:46:04;;;;;;;0.70;0.70;;;-0.20;99.90;;;;;;5012980;28;20211;-70
2021/11/23 02:48:29;;;;;;;0.70;0.70;;;-0.30;99.90;;;;;;5012566;28;20674;-70
2021/11/23 02:53:24;;;;;;;0.80;0.80;;;-0.30;99.90;;;;;;5011544;28;20207;-71
2021/11/23 02:55:50;;;;;;;0.60;0.60;;;-0.30;99.90;;;;;;4996590;28;20195;-70
2021/11/23 02:58:16;;;;;;;0.93;0.93;;;-0.30;99.90;;;;;;5011636;28;20202;-71
2021/11/23 03:00:44;;;;;;;0.70;0.70;;;-0.30;99.90;;;;;;5007434;28;20206;-70
2021/11/23 03:03:10;;;;;;;0.90;0.90;;;-0.30;99.90;;;;;;5012025;28;20260;-71
2021/11/23 03:05:37;;;;;;;0.60;0.60;;;-0.40;99.90;;;;;;5012312;28;20214;-70
2021/11/23 03:08:04;;;;;;;0.70;0.70;;;-0.50;99.90;;;;;;5012253;28;20625;-71
2021/11/23 03:10:31;;;;;;;0.68;0.68;;;-0.60;99.90;;;;;;5011903;28;20210;-70
2021/11/23 03:12:58;;;;;;;0.75;0.75;;;-0.70;99.90;;;;;;5010636;28;20628;-70
2021/11/23 03:15:25;;;;;;;0.60;0.60;;;-0.80;99.90;;;;;;5011170;28;20207;-70
2021/11/23 03:17:52;;;;;;;0.70;0.70;;;-0.90;99.90;;;;;;5010681;28;20569;-70
2021/11/23 03:20:19;;;;;;;0.77;0.77;;;-0.90;99.90;;;;;;5013339;28;20210;-71
2021/11/23 03:25:19;;;;;;;0.70;0.70;;;-1.00;99.90;;;;;;4990123;28;20294;-81
2021/11/23 03:27:45;;;;;;;0.77;0.77;;;-1.00;99.90;;;;;;5008367;28;20200;-80
2021/11/23 03:30:13;;;;;;;0.70;0.70;;;-1.10;99.90;;;;;;4992925;28;20302;-81
2021/11/23 03:32:39;;;;;;;0.80;0.80;;;-1.10;99.90;;;;;;4991681;28;20629;-80
2021/11/23 03:35:07;;;;;;;0.82;0.82;;;-1.10;99.90;;;;;;4992878;28;20237;-81
2021/11/23 03:37:33;;;;;;;0.70;0.70;;;-1.10;99.90;;;;;;4992777;28;20211;-80
2021/11/23 03:39:59;;;;;;;0.70;0.70;;;-1.10;99.90;;;;;;4991696;28;20611;-81
2021/11/23 03:42:24;;;;;;;0.55;0.55;;;-1.00;99.90;;;;;;4991394;28;20196;-81
2021/11/23 03:44:57;;;;;;;1.50;1.40;;;-1.00;99.90;;;;;;4992870;28;20202;-81
2021/11/23 03:47:23;;;;;;;0.60;0.60;;;-1.10;99.90;;;;;;4992771;28;20561;-82
2021/11/23 03:49:49;;;;;;;0.98;0.95;;;-1.10;99.90;;;;;;4991450;28;20203;-81
2021/11/23 03:52:16;;;;;;;0.80;0.80;;;-1.10;99.90;;;;;;4991492;28;20717;-81
2021/11/23 03:54:41;;;;;;;0.70;0.70;;;-1.10;99.90;;;;;;4992857;28;20212;-82
2021/11/23 03:57:07;;;;;;;0.65;0.65;;;-1.10;99.90;;;;;;4991717;28;20299;-81
2021/11/23 03:59:33;;;;;;;0.80;0.80;;;-1.20;99.90;;;;;;4991291;28;20195;-84
2021/11/23 04:01:59;;;;;;;0.70;0.70;;;-1.30;99.90;;;;;;4990433;28;20560;-81
2021/11/23 04:04:25;;;;;;;5.95;1.45;;;-1.40;99.90;;;;;;4991257;28;20203;-82
2021/11/23 04:06:51;;;;;;;0.70;0.70;;;-1.40;99.90;;;;;;4992235;28;20574;-81
2021/11/23 04:09:16;;;;;;;0.80;0.80;;;-1.50;99.90;;;;;;5007530;28;20222;-81
2021/11/23 04:11:42;;;;;;;0.60;0.60;;;-1.60;99.90;;;;;;4990815;28;20219;-80
2021/11/23 04:14:08;;;;;;;0.70;0.70;;;-1.60;99.90;;;;;;4992165;28;20633;-81
2021/11/23 04:16:34;;;;;;;0.70;0.70;;;-1.70;99.90;;;;;;4990952;28;20211;-81
2021/11/23 04:18:59;;;;;;;0.70;0.70;;;-1.80;99.90;;;;;;4992185;28;20261;-81
2021/11/23 04:21:25;;;;;;;0.70;0.70;;;-1.90;99.90;;;;;;4990684;28;20200;-81
2021/11/23 04:23:51;;;;;;;0.75;0.75;;;-1.90;99.90;;;;;;4990687;28;20223;-81
2021/11/23 04:26:17;;;;;;;0.80;0.80;;;-2.00;99.90;;;;;;4990673;28;20211;-81
2021/11/23 04:28:43;;;;;;;0.70;0.70;;;-2.00;99.90;;;;;;4990660;28;20200;-82
2021/11/23 04:31:09;;;;;;;0.80;0.80;;;-2.10;99.90;;;;;;4991750;28;20218;-82
2021/11/23 04:33:35;;;;;;;0.70;0.70;;;-2.10;99.90;;;;;;4992066;28;20577;-81
2021/11/23 04:36:04;;;;;;;0.80;0.80;;;-2.10;99.90;;;;;;4992220;28;20578;-81
2021/11/23 04:38:30;;;;;;;0.70;0.70;;;-2.10;99.90;;;;;;4990883;28;20206;-82
2021/11/23 04:40:56;;;;;;;0.90;0.90;;;-2.00;99.90;;;;;;4990741;28;20203;-82
2021/11/23 04:43:22;;;;;;;0.70;0.70;;;-1.90;99.90;;;;;;5007023;28;20230;-83
2021/11/23 04:45:49;;;;;;;0.70;0.70;;;-1.80;99.90;;;;;;4989752;28;20525;-82
2021/11/23 04:48:15;;;;;;;0.80;0.80;;;-1.70;99.90;;;;;;4990900;28;20223;-82
2021/11/23 04:50:40;;;;;;;0.70;0.70;;;-1.50;99.90;;;;;;4990594;28;20309;-82
2021/11/23 04:53:08;;;;;;;0.82;0.82;;;-1.50;99.90;;;;;;4991908;28;20191;-81
2021/11/23 04:55:34;;;;;;;0.77;0.77;;;-1.50;99.90;;;;;;5006243;28;20230;-81
2021/11/23 04:58:00;;;;;;;0.60;0.60;;;-1.50;99.90;;;;;;5007355;28;20250;-82
2021/11/23 05:00:26;;;;;;;0.80;0.80;;;-1.50;99.90;;;;;;5005602;28;20219;-82
2021/11/23 05:02:51;;;;;;;0.77;0.77;;;-1.50;99.90;;;;;;5007077;28;20243;-81
2021/11/23 05:05:17;;;;;;;0.80;0.80;;;-1.60;99.90;;;;;;4991769;28;20298;-82
2021/11/23 05:07:44;;;;;;;0.70;0.70;;;-1.70;99.90;;;;;;5006729;28;20257;-82
2021/11/23 05:10:11;;;;;;;0.80;0.80;;;-1.70;99.90;;;;;;5006132;28;20265;-82
2021/11/23 05:12:37;;;;;;;0.55;0.55;;;-1.80;99.90;;;;;;4990635;28;20207;-81
2021/11/23 05:15:04;;;;;;;0.75;0.75;;;-1.90;99.90;;;;;;4991706;28;20226;-81
2021/11/23 05:17:30;;;;;;;0.68;0.68;;;-2.00;99.90;;;;;;4991462;28;20200;-82
2021/11/23 05:19:56;;;;;;;0.60;0.60;;;-2.00;99.90;;;;;;4990449;28;20203;-81
2021/11/23 05:22:22;;;;;;;0.82;0.82;;;-1.90;99.90;;;;;;4991428;28;20275;-81
2021/11/23 05:24:48;;;;;;;0.70;0.70;;;-1.70;99.90;;;;;;4990846;28;20227;-81
2021/11/23 05:27:14;;;;;;;0.80;0.80;;;-1.60;99.90;;;;;;5007756;28;20210;-81
2021/11/23 05:29:40;;;;;;;0.70;0.70;;;-1.70;99.90;;;;;;4990987;28;20230;-81
2021/11/23 05:32:06;;;;;;;0.70;0.70;;;-1.70;99.90;;;;;;4990926;28;20211;-81
2021/11/23 05:34:35;;;;;;;0.90;0.90;;;-1.70;99.90;;;;;;4991781;28;20210;-80
2021/11/23 05:37:01;;;;;;;0.80;0.80;;;-1.70;99.90;;;;;;4992133;28;20203;-81
2021/11/23 05:39:27;;;;;;;0.90;0.90;;;-1.80;99.90;;;;;;5008220;28;20210;-81
2021/11/23 05:41:53;;;;;;;0.90;0.90;;;-1.90;99.90;;;;;;4995811;28;20225;-81
2021/11/23 05:44:18;;;;;;;0.80;0.80;;;-2.00;99.90;;;;;;4995883;28;20313;-82
2021/11/23 05:46:45;;;;;;;0.80;0.80;;;-2.00;99.90;;;;;;4994685;28;20230;-81
2021/11/23 05:49:10;;;;;;;0.70;0.70;;;-2.00;99.90;;;;;;4994455;28;20213;-83
2021/11/23 05:51:37;;;;;;;0.70;0.70;;;-2.00;99.90;;;;;;4996103;28;21110;-82
2021/11/23 05:54:03;;;;;;;0.80;0.80;;;-2.00;99.90;;;;;;4995589;28;20600;-81
2021/11/23 05:56:29;;;;;;;0.60;0.60;;;-2.00;99.90;;;;;;4994308;28;20199;-83
2021/11/23 05:58:55;;;;;;;0.77;0.77;;;-2.00;99.90;;;;;;4977263;28;20614;-82
2021/11/23 06:01:21;;;;;;;0.80;0.80;;;-2.10;99.90;;;;;;4994993;28;20230;-82
2021/11/23 06:03:46;;;;;;;0.65;0.65;;;-2.00;99.90;;;;;;5011183;28;20258;-82
2021/11/23 06:06:13;;;;;;;3.00;2.55;;;-2.00;99.90;;;;;;5011059;28;20211;-82
2021/11/23 06:08:39;;;;;;;0.63;0.63;;;-2.00;99.90;;;;;;4994044;28;20733;-82
2021/11/23 06:11:05;;;;;;;0.70;0.70;;;-2.00;99.90;;;;;;4994080;28;20211;-82
2021/11/23 06:13:34;;;;;;;0.70;0.70;;;-2.10;99.90;;;;;;4993593;28;20311;-82
2021/11/23 06:16:00;;;;;;;0.80;0.80;;;-2.10;99.90;;;;;;4994998;28;20618;-82
2021/11/23 06:18:25;;;;;;;0.80;0.80;;;-2.20;99.90;;;;;;4995123;28;20257;-81
2021/11/23 06:20:56;;;;;;;0.80;0.80;;;-2.20;99.90;;;;;;4993923;28;20214;-81
2021/11/23 06:23:23;;;;;;;0.90;0.90;;;-2.30;99.90;;;;;;5003196;28;20274;-81
2021/11/23 06:25:51;;;;;;;0.75;0.75;;;-2.30;99.90;;;;;;5000386;28;20211;-82
2021/11/23 06:28:19;;;;;;;0.82;0.82;;;-2.30;99.90;;;;;;4994992;28;20609;-81
2021/11/23 06:30:45;;;;;;;0.82;0.82;;;-2.40;99.90;;;;;;4994780;28;20222;-82
2021/11/23 06:33:12;;;;;;;0.70;0.70;;;-2.40;99.90;;;;;;4994657;28;20670;-81
2021/11/23 06:35:38;;;;;;;0.63;0.63;;;-2.40;99.90;;;;;;4995527;28;20337;-81
2021/11/23 06:38:05;;;;;;;0.85;0.85;;;-2.40;99.90;;;;;;4994909;28;20199;-81
2021/11/23 06:40:31;;;;;;;0.80;0.80;;;-2.30;99.90;;;;;;4994053;28;20674;-82
2021/11/23 06:42:57;;;;;;;0.70;0.70;;;-2.40;99.90;;;;;;4994587;28;20204;-81
2021/11/23 06:45:23;;;;;;;0.70;0.70;;;-2.30;99.90;;;;;;4993280;28;20206;-81
2021/11/23 06:47:50;;;;;;;0.70;0.70;;;-2.20;99.90;;;;;;4994407;28;20214;-81
2021/11/23 06:50:17;;;;;;;0.80;0.80;;;-2.10;99.90;;;;;;4993232;28;20219;-81
2021/11/23 06:52:43;;;;;;;0.70;0.70;;;-2.00;99.90;;;;;;4992775;28;20736;-81
2021/11/23 06:55:09;;;;;;;0.70;0.70;;;-2.00;99.90;;;;;;4993859;28;20246;-83
2021/11/23 06:57:36;;;;;;;0.80;0.80;;;-2.00;99.90;;;;;;4993826;28;20204;-82
2021/11/23 07:00:07;;;;;;;0.70;0.70;;;-1.90;99.90;;;;;;5008761;28;20211;-81
2021/11/23 07:02:33;;;;;;;0.80;0.80;;;-2.00;99.90;;;;;;4993587;28;20675;-82
2021/11/23 07:05:00;;;;;;;3.13;2.38;;;-2.00;99.90;;;;;;4993168;28;20204;-82
2021/11/23 07:07:26;;;;;;;0.73;0.73;;;-2.00;99.90;;;;;;4994058;28;20203;-82
2021/11/23 07:09:52;;;;;;;0.73;0.73;;;-2.10;99.90;;;;;;4994270;28;20202;-81
2021/11/23 07:12:18;;;;;;;0.70;0.70;;;-2.20;99.90;;;;;;4992923;28;20211;-83
2021/11/23 07:14:44;;;;;;;0.60;0.60;;;-2.20;99.90;;;;;;4993824;28;20204;-83
2021/11/23 07:17:10;;;;;;;0.70;0.70;;;-2.20;99.90;;;;;;4992815;28;20273;-82
2021/11/23 07:19:35;;;;;;;0.70;0.70;;;-2.20;99.90;;;;;;4992745;28;20706;-82
2021/11/23 07:22:01;;;;;;;0.70;0.70;;;-2.20;99.90;;;;;;4992690;28;20208;-81
2021/11/23 07:24:27;;;;;;;0.70;0.70;;;-2.30;99.90;;;;;;4993360;28;20263;-82
2021/11/23 07:26:54;;;;;;;0.88;0.88;;;-2.20;99.90;;;;;;5009007;28;20227;-82
2021/11/23 07:29:19;;;;;;;0.65;0.65;;;-2.30;99.90;;;;;;4993856;28;20204;-82
2021/11/23 07:31:45;;;;;;;0.80;0.80;;;-2.30;99.90;;;;;;4993392;28;20210;-82
2021/11/23 07:34:11;;;;;;;0.80;0.80;;;-2.30;99.90;;;;;;5006684;28;20200;-82
2021/11/23 07:36:38;;;;;;;0.70;0.70;;;-2.20;99.90;;;;;;4978989;28;20290;-82
2021/11/23 07:39:05;;;;;;;0.80;0.80;;;-2.20;99.90;;;;;;4992496;28;20203;-81
2021/11/23 07:41:32;;;;;;;0.80;0.80;;;-2.20;99.90;;;;;;4992146;28;20215;-82
2021/11/23 07:43:58;;;;;;;0.70;0.70;;;-2.20;99.90;;;;;;4992567;28;20681;-83
2021/11/23 07:46:25;;;;;;;0.70;0.70;;;-2.20;99.90;;;;;;4992578;28;20202;-82
2021/11/23 07:48:52;;;;;;;0.60;0.60;;;-2.10;99.90;;;;;;5008933;28;20689;-82
2021/11/23 07:51:18;;;;;;;0.80;0.80;;;-2.10;99.90;;;;;;4991246;28;20235;-83
2021/11/23 07:53:44;;;;;;;0.70;0.70;;;-2.10;99.90;;;;;;4992217;28;20682;-83
2021/11/23 07:56:11;;;;;;;0.70;0.70;;;-2.00;99.90;;;;;;4992016;28;20207;-81
2021/11/23 07:58:37;;;;;;;0.80;0.80;;;-2.00;99.90;;;;;;5008227;28;20238;-81
2021/11/23 08:01:03;;;;;;;0.60;0.60;;;-1.90;99.90;;;;;;4991893;28;20227;-82
2021/11/23 08:03:29;;;;;;;0.70;0.70;;;-1.90;99.90;;;;;;4991297;28;20204;-82
2021/11/23 08:05:55;;;;;;;0.90;0.90;;;-1.80;99.90;;;;;;4991904;28;20575;-82
2021/11/23 08:08:22;;;;;;;0.80;0.80;;;-1.80;99.90;;;;;;4991692;28;20243;-82
2021/11/23 08:10:47;;;;;;;0.80;0.80;;;-1.80;99.90;;;;;;4991855;28;20211;-82
2021/11/23 08:13:16;;;;;;;0.80;0.80;;;-1.80;99.90;;;;;;4991811;28;20211;-81
2021/11/23 08:15:42;;;;;;;2.95;1.95;;;-1.70;99.90;;;;;;4991564;28;20203;-83
2021/11/23 08:18:09;;;;;;;0.80;0.80;;;-1.70;99.90;;;;;;4991582;28;20211;-82
2021/11/23 08:20:34;;;;;;;0.70;0.70;;;-1.60;99.90;;;;;;4991528;28;20227;-81
2021/11/23 08:23:00;;;;;;;0.70;0.70;;;-1.50;99.90;;;;;;4991476;28;20239;-82
2021/11/23 08:25:29;;;;;;;0.93;0.93;;;-1.40;99.90;;;;;;4991080;28;20222;-82
2021/11/23 08:27:58;;;;;;;0.73;0.73;;;-1.30;99.90;;;;;;4991581;28;20580;-82
2021/11/23 08:30:26;;;;;;;1.33;1.23;;;-1.30;99.90;;;;;;4993713;28;20234;-81
2021/11/23 08:32:51;;;;;;;0.80;0.80;;;-1.20;99.90;;;;;;4992615;28;20211;-82
2021/11/23 08:35:18;;;;;;;0.80;0.80;;;-1.10;99.90;;;;;;4992588;28;20212;-82
2021/11/23 08:37:44;;;;;;;0.60;0.60;;;-1.00;99.90;;;;;;4991499;28;20214;-82
2021/11/23 08:40:10;;;;;;;0.70;0.70;;;-1.00;99.90;;;;;;4991621;28;20289;-81
2021/11/23 08:42:36;;;;;;;0.70;0.70;;;-0.90;99.90;;;;;;4991279;28;20531;-82
2021/11/23 08:45:05;;;;;;;0.90;0.90;;;-0.90;99.90;;;;;;4992853;28;20524;-81
2021/11/23 08:47:31;;;;;;;0.73;0.73;;;-0.90;99.90;;;;;;4991125;28;20203;-82
2021/11/23 08:49:57;;;;;;;1.33;1.23;;;-0.90;99.90;;;;;;4991388;28;20218;-81
2021/11/23 08:52:26;;;;;;;0.70;0.70;;;-0.90;99.90;;;;;;4990494;28;20204;-81
2021/11/23 08:54:52;;;;;;;0.70;0.70;;;-0.80;99.90;;;;;;4991303;28;20207;-81
2021/11/23 08:57:18;;;;;;;0.70;0.70;;;-0.90;99.90;;;;;;4991326;28;20207;-81
2021/11/23 08:59:44;;;;;;;0.73;0.73;;;-0.90;99.90;;;;;;4991235;28;20583;-82
2021/11/23 09:02:13;;;;;;;0.60;0.60;;;-0.90;99.90;;;;;;4992494;28;20226;-82
2021/11/23 09:04:40;;;;;;;0.70;0.70;;;-0.90;99.90;;;;;;4991056;28;20682;-81
2021/11/23 09:07:09;;;;;;;0.65;0.65;;;-0.90;99.90;;;;;;4991251;28;20215;-81
2021/11/23 09:09:38;;;;;;;0.80;0.80;;;-0.90;99.90;;;;;;4990870;28;20204;-82
2021/11/23 09:12:05;;;;;;;0.80;0.80;;;-0.90;99.90;;;;;;4990940;28;20216;-82
2021/11/23 09:14:32;;;;;;;0.60;0.60;;;-0.90;99.90;;;;;;4993868;28;20199;-82
2021/11/23 09:16:58;;;;;;;0.80;0.80;;;-0.80;99.90;;;;;;4995049;28;20214;-81
2021/11/23 09:19:25;;;;;;;0.70;0.70;;;-0.80;99.90;;;;;;4995045;28;20199;-82
2021/11/23 09:21:52;;;;;;;1.02;1.02;;;-0.70;99.90;;;;;;4994738;28;20211;-82
2021/11/23 09:24:18;;;;;;;0.65;0.65;;;-0.60;99.90;;;;;;4994504;28;20317;-82
2021/11/23 09:26:44;;;;;;;0.70;0.70;;;-0.50;99.90;;;;;;4995854;28;20294;-81
2021/11/23 09:29:13;;;;;;;0.70;0.70;;;-0.40;99.90;;;;;;4995355;28;20266;-81
2021/11/23 09:31:38;;;;;;;0.70;0.70;;;-0.30;99.90;;;;;;4993548;28;20215;-81
2021/11/23 09:34:04;;;;;;;0.80;0.80;;;-0.20;99.90;;;;;;4993896;28;20617;-81
2021/11/23 09:36:30;;;;;;;0.80;0.80;;;-0.10;99.90;;;;;;4995844;28;20591;-82
2021/11/23 09:38:55;;;;;;;0.65;0.65;;;0.00;99.90;;;;;;4994849;28;20230;-81
2021/11/23 09:41:21;;;;;;;0.73;0.73;;;0.10;99.90;;;;;;4994638;28;20298;-82
2021/11/23 09:43:47;;;;;;;0.70;0.70;;;0.10;99.90;;;;;;4994561;28;20210;-81
2021/11/23 09:46:13;;;;;;;1.30;1.20;;;0.20;99.90;;;;;;4994857;28;20216;-81
2021/11/23 09:48:43;;;;;;;0.60;0.60;;;0.20;99.90;;;;;;4995208;28;20220;-81
2021/11/23 09:51:24;;;;;;;2.28;1.55;;;0.20;99.90;;;;;;5011807;28;20215;-81
2021/11/23 09:53:50;;;;;;;0.98;0.98;;;0.20;99.90;;;;;;4994450;28;20609;-81
2021/11/23 09:56:16;;;;;;;0.68;0.68;;;0.30;99.90;;;;;;4995643;28;20207;-82
2021/11/23 09:58:42;;;;;;;0.70;0.70;;;0.30;99.90;;;;;;4994902;28;20667;-82
2021/11/23 10:01:09;;;;;;;0.95;0.95;;;0.30;99.90;;;;;;4994092;28;20208;-83
2021/11/23 10:03:36;;;;;;;1.60;1.50;;;0.30;99.90;;;;;;4994421;28;20570;-82
2021/11/23 10:06:15;;;;;;;0.60;0.60;;;0.40;99.90;;;;;;4995243;28;20207;-82
2021/11/23 10:08:43;;;;;;;0.73;0.70;;;0.40;99.90;;;;;;4994036;28;20213;-82
2021/11/23 10:11:10;;;;;;;0.90;0.90;;;0.40;99.90;;;;;;4994195;28;20222;-82
2021/11/23 10:14:03;;;;;;;0.60;0.60;;;0.30;99.90;;;;;;4995164;28;20218;-82
2021/11/23 10:16:44;;;;;;;0.65;0.65;;;0.30;99.90;;;;;;4991437;28;20621;-82
2021/11/23 10:19:12;;;;;;;0.68;0.68;;;0.30;99.90;;;;;;4996309;28;20286;-81
2021/11/23 10:21:58;;;;;;;1.10;1.10;;;0.20;99.90;;;;;;4993945;28;20343;-82
2021/11/23 10:24:24;;;;;;;0.68;0.68;;;0.30;99.90;;;;;;4993840;28;20223;-82
2021/11/23 10:26:51;;;;;;;1.90;1.77;;;0.20;99.90;;;;;;4993641;28;20662;-81
2021/11/23 10:29:17;;;;;;;0.60;0.60;;;0.30;99.90;;;;;;4993890;28;20207;-81
2021/11/23 10:31:45;;;;;;;0.75;0.75;;;0.20;99.90;;;;;;4993534;28;20345;-81
2021/11/23 10:34:16;;;;;;;0.75;0.75;;;0.20;99.90;;;;;;4994728;28;20709;-81
2021/11/23 10:36:44;;;;;;;0.63;0.63;;;0.30;99.90;;;;;;4993400;28;20674;-82
2021/11/23 10:39:17;;;;;;;0.70;0.70;;;0.30;99.90;;;;;;4993718;28;20223;-81
2021/11/23 10:41:48;;;;;;;0.70;0.70;;;0.20;99.90;;;;;;4994393;28;20749;-82
2021/11/23 10:44:28;;;;;;;0.68;0.68;;;0.20;99.90;;;;;;4994477;28;20234;-82
2021/11/23 10:46:54;;;;;;;0.70;0.70;;;0.20;99.90;;;;;;4993312;28;20704;-81
2021/11/23 10:49:47;;;;;;;0.70;0.70;;;0.20;99.90;;;;;;5007846;28;20214;-82
2021/11/23 10:52:28;;;;;;;0.60;0.60;;;0.20;99.90;;;;;;4992802;28;20322;-82
2021/11/23 10:54:55;;;;;;;0.70;0.70;;;0.30;99.90;;;;;;4993093;28;20199;-81
2021/11/23 10:57:22;;;;;;;0.70;0.70;;;0.30;99.90;;;;;;4993077;28;20564;-83
2021/11/23 10:59:48;;;;;;;0.70;0.70;;;0.20;99.90;;;;;;4993158;28;20200;-82
2021/11/23 11:02:14;;;;;;;2.85;2.03;;;0.20;99.90;;;;;;4994299;28;20274;-82
2021/11/23 11:04:41;;;;;;;0.70;0.70;;;0.10;99.90;;;;;;4994152;28;20294;-82
2021/11/23 11:07:07;;;;;;;0.70;0.70;;;0.10;99.90;;;;;;4993197;28;20237;-82
2021/11/23 11:09:35;;;;;;;0.80;0.80;;;0.10;99.90;;;;;;4992687;28;20212;-81
2021/11/23 11:12:02;;;;;;;0.68;0.68;;;0.10;99.90;;;;;;4994345;28;20211;-82
2021/11/23 11:14:35;;;;;;;0.82;0.82;;;0.10;99.90;;;;;;4992768;28;20204;-82
2021/11/23 11:17:05;;;;;;;0.70;0.70;;;0.10;99.90;;;;;;5010322;28;20234;-81
2021/11/23 11:19:48;;;;;;;0.68;0.68;;;0.10;99.90;;;;;;5009259;28;20211;-82
2021/11/23 11:22:16;;;;;;;0.60;0.60;;;0.20;99.90;;;;;;4986318;28;20563;-82
2021/11/23 11:27:47;;;;;;;0.70;0.70;;;0.30;99.90;;;;;;4994921;28;20274;-81
2021/11/23 11:30:24;;;;;;;0.60;0.60;;;0.20;99.90;;;;;;4992614;28;20203;-81
2021/11/23 11:32:51;;;;;;;0.60;0.60;;;0.20;99.90;;;;;;4992782;28;20195;-81
2021/11/23 11:35:29;;;;;;;0.57;0.57;;;0.20;99.90;;;;;;4992662;28;20731;-81
2021/11/23 11:38:00;;;;;;;0.60;0.60;;;0.20;99.90;;;;;;4997392;28;20196;-81
2021/11/23 11:40:35;;;;;;;1.13;1.08;;;0.20;99.90;;;;;;4992098;28;20203;-82
2021/11/23 11:43:04;;;;;;;0.70;0.70;;;0.20;99.90;;;;;;4992328;28;20297;-81
2021/11/23 11:45:44;;;;;;;0.60;0.60;;;0.20;99.90;;;;;;4993211;28;20234;-82
2021/11/23 11:48:38;;;;;;;0.70;0.70;;;0.10;99.90;;;;;;5008889;28;20257;-81
2021/11/23 11:51:32;;;;;;;0.70;0.70;;;0.10;99.90;;;;;;5008495;28;20214;-81
2021/11/23 11:54:20;;;;;;;0.60;0.60;;;0.00;99.90;;;;;;5006551;28;20204;-82
2021/11/23 11:56:48;;;;;;;0.60;0.60;;;0.00;99.90;;;;;;4991950;28;20209;-82
2021/11/23 11:59:17;;;;;;;0.80;0.80;;;-0.10;99.90;;;;;;4993068;28;20300;-81
2021/11/23 12:02:01;;;;;;;0.65;0.65;;;-0.10;99.90;;;;;;4991812;28;20207;-81
2021/11/23 12:04:32;;;;;;;0.70;0.70;;;-0.20;99.90;;;;;;4992085;28;20222;-82
2021/11/23 12:07:07;;;;;;;0.70;0.70;;;-0.20;99.90;;;;;;4991857;28;20266;-81
2021/11/23 12:09:40;;;;;;;0.60;0.60;;;-0.30;99.90;;;;;;5008075;28;20207;-81
2021/11/23 12:12:09;;;;;;;0.80;0.80;;;-0.40;99.90;;;;;;4992934;28;20211;-81
2021/11/23 12:14:58;;;;;;;1.00;0.90;;;-0.40;99.90;;;;;;5007885;28;20550;-81
2021/11/23 12:18:03;;;;;;;0.65;0.65;;;-0.50;99.90;;;;;;4992808;28;20298;-81
2021/11/23 12:20:41;;;;;;;0.60;0.60;;;-0.50;99.90;;;;;;4992293;28;20211;-81
2021/11/23 12:23:37;;;;;;;0.70;0.70;;;-0.50;99.90;;;;;;4991537;28;20678;-86
2021/11/23 12:26:09;;;;;;;0.60;0.60;;;-0.60;99.90;;;;;;4997714;28;20219;-82
2021/11/23 12:28:35;;;;;;;0.80;0.80;;;-0.60;99.90;;;;;;4989977;28;20211;-81
2021/11/23 12:31:07;;;;;;;1.02;1.02;;;-0.60;99.90;;;;;;4991561;28;20238;-81
2021/11/23 12:33:46;;;;;;;0.70;0.70;;;-0.60;99.90;;;;;;4991562;28;20207;-81
2021/11/23 12:36:18;;;;;;;0.95;0.95;;;-0.60;99.90;;;;;;5007692;28;20571;-81
2021/11/23 12:38:46;;;;;;;0.60;0.60;;;-0.60;99.90;;;;;;5006985;28;20579;-82
2021/11/23 12:41:19;;;;;;;0.70;0.70;;;-0.60;99.90;;;;;;4992264;28;20231;-82
2021/11/23 12:43:47;;;;;;;0.70;0.70;;;-0.50;99.90;;;;;;5007431;28;20682;-82
2021/11/23 12:46:20;;;;;;;0.75;0.75;;;-0.50;99.90;;;;;;4991407;28;20302;-86
2021/11/23 12:48:47;;;;;;;0.70;0.70;;;-0.50;99.90;;;;;;4991259;28;20203;-81
2021/11/23 12:51:37;;;;;;;0.80;0.80;;;-0.50;99.90;;;;;;5007961;28;20231;-81
2021/11/23 12:54:06;;;;;;;0.70;0.70;;;-0.40;99.90;;;;;;5007760;28;20269;-81
2021/11/23 12:56:49;;;;;;;0.70;0.70;;;-0.50;99.90;;;;;;4991790;28;20199;-82
2021/11/23 12:59:32;;;;;;;0.63;0.63;;;-0.50;99.90;;;;;;4991938;28;20209;-82
2021/11/23 13:02:00;;;;;;;0.60;0.60;;;-0.40;99.90;;;;;;4991707;28;20218;-82